Time;durP1;ratioP1;P1;durP2;ratioP2;P2;SDS_P1;SDS_P2;PMS_P1;PMS_P2;Temp;Humidity;BMP_temperature;BMP_pressure;BME280_temperature;BME280_humidity;BME280_pressure;Samples;Min_cycle;Max_cycle;Signal;HPM_P1;HPM_P2
2020/12/10 08:02:50;;;;;;;13.38;4.75;;;;;;;;;;5058912;28;20395;-75
2020/12/10 08:05:15;;;;;;;14.65;3.95;;;;;;;;;;5069654;28;20033;-75
2020/12/10 08:07:45;;;;;;;19.60;4.45;;;;;;;;;;5069502;28;20036;-74
2020/12/10 08:10:18;;;;;;;21.92;5.63;;;;;;;;;;5068994;28;20033;-76
2020/12/10 08:12:43;;;;;;;14.30;3.63;;;;;;;;;;5069910;28;20029;-72
2020/12/10 08:15:09;;;;;;;20.27;4.15;;;;;;;;;;5069427;28;20029;-73
2020/12/10 08:17:34;;;;;;;16.70;3.70;;;;;;;;;;5069399;28;20478;-75
2020/12/10 08:19:59;;;;;;;10.57;4.22;;;;;;;;;;5069279;28;20035;-75
2020/12/10 08:22:26;;;;;;;15.95;4.35;;;;;;;;;;5069021;28;20044;-75
2020/12/10 08:24:51;;;;;;;17.00;4.53;;;;;;;;;;5068982;28;20021;-75
2020/12/10 08:27:18;;;;;;;14.02;4.03;;;;;;;;;;5068958;28;20040;-74
2020/12/10 08:30:11;;;;;;;23.65;5.28;;;;;;;;;;5067786;28;20412;-75
2020/12/10 08:32:48;;;;;;;23.88;5.63;;;;;;;;;;5068256;28;20119;-74
2020/12/10 08:35:13;;;;;;;19.83;3.60;;;;;;;;;;5068891;28;20113;-74
2020/12/10 08:37:39;;;;;;;18.02;4.93;;;;;;;;;;5067724;28;20126;-75
2020/12/10 08:40:05;;;;;;;11.32;4.03;;;;;;;;;;5067614;28;20430;-75
2020/12/10 08:42:31;;;;;;;14.63;4.40;;;;;;;;;;5068677;28;20104;-74
2020/12/10 08:44:56;;;;;;;20.08;3.92;;;;;;;;;;5068267;28;20691;-76
2020/12/10 08:47:30;;;;;;;16.20;4.53;;;;;;;;;;5068354;28;20060;-75
2020/12/10 08:52:55;;;;;;;25.52;4.70;;;;;;;;;;5068775;28;20033;-75
2020/12/10 08:55:20;;;;;;;10.90;4.63;;;;;;;;;;5068896;28;20361;-75
2020/12/10 08:57:46;;;;;;;17.30;4.95;;;;;;;;;;5068668;28;20036;-75
2020/12/10 09:00:11;;;;;;;22.52;4.60;;;;;;;;;;5068062;28;20048;-74
2020/12/10 09:02:36;;;;;;;20.02;5.22;;;;;;;;;;5062820;28;20036;-75
2020/12/10 09:05:02;;;;;;;17.85;5.15;;;;;;;;;;5062791;28;20033;-75
2020/12/10 09:07:27;;;;;;;16.95;4.88;;;;;;;;;;5065561;28;20017;-74
2020/12/10 09:09:52;;;;;;;17.23;5.75;;;;;;;;;;5065750;28;20040;-74
2020/12/10 09:12:17;;;;;;;11.75;4.50;;;;;;;;;;5059726;28;20120;-74
2020/12/10 09:14:43;;;;;;;16.05;4.78;;;;;;;;;;5045836;28;20052;-78
2020/12/10 09:17:08;;;;;;;18.42;4.65;;;;;;;;;;5051651;28;20033;-74
2020/12/10 09:19:33;;;;;;;17.15;5.38;;;;;;;;;;5051835;28;20032;-75
2020/12/10 09:21:59;;;;;;;16.25;6.03;;;;;;;;;;5051534;28;20464;-75
2020/12/10 09:24:24;;;;;;;14.40;5.25;;;;;;;;;;5052448;28;20036;-75
2020/12/10 09:26:49;;;;;;;13.40;6.03;;;;;;;;;;5051811;28;20051;-75
2020/12/10 09:29:14;;;;;;;15.90;4.90;;;;;;;;;;5052955;28;20024;-75
2020/12/10 09:31:40;;;;;;;12.27;4.93;;;;;;;;;;5051114;28;20512;-75
2020/12/10 09:34:05;;;;;;;15.77;4.70;;;;;;;;;;5051895;28;20028;-75
2020/12/10 09:36:31;;;;;;;15.60;5.78;;;;;;;;;;5051464;28;20059;-75
2020/12/10 09:38:56;;;;;;;12.32;4.50;;;;;;;;;;5052186;28;20033;-74
2020/12/10 09:41:22;;;;;;;12.80;4.40;;;;;;;;;;5051691;28;20067;-74
2020/12/10 09:43:48;;;;;;;12.30;4.03;;;;;;;;;;5052270;28;20420;-75
2020/12/10 09:46:14;;;;;;;16.20;3.92;;;;;;;;;;5048106;28;20040;-75
2020/12/10 09:48:39;;;;;;;11.55;4.68;;;;;;;;;;5050499;28;20064;-74
2020/12/10 09:51:05;;;;;;;4.97;3.33;;;;;;;;;;5051276;28;20492;-75
2020/12/10 09:53:42;;;;;;;8.60;3.58;;;;;;;;;;5051468;28;20056;-74
2020/12/10 09:58:41;;;;;;;12.73;4.05;;;;;;;;;;5051245;28;20041;-75
2020/12/10 10:01:10;;;;;;;11.52;3.63;;;;;;;;;;5050840;28;20122;-75
2020/12/10 10:03:35;;;;;;;13.15;4.00;;;;;;;;;;5051109;28;20087;-74
2020/12/10 10:06:00;;;;;;;12.68;4.82;;;;;;;;;;5050584;28;20028;-75
2020/12/10 10:08:27;;;;;;;12.70;3.15;;;;;;;;;;5050978;28;20021;-75
2020/12/10 10:10:53;;;;;;;7.20;3.10;;;;;;;;;;5051710;28;20048;-75
2020/12/10 10:13:19;;;;;;;12.00;3.35;;;;;;;;;;5051499;28;20021;-74
2020/12/10 10:15:45;;;;;;;15.38;4.10;;;;;;;;;;5050627;28;20113;-74
2020/12/10 10:18:10;;;;;;;14.25;3.22;;;;;;;;;;5051116;28;20037;-75
2020/12/10 10:20:37;;;;;;;13.45;3.40;;;;;;;;;;5051330;28;20028;-75
2020/12/10 10:23:03;;;;;;;10.10;3.28;;;;;;;;;;5050919;28;20043;-75
2020/12/10 10:25:28;;;;;;;8.18;4.18;;;;;;;;;;5050797;28;20029;-75
2020/12/10 10:27:53;;;;;;;13.63;3.15;;;;;;;;;;5049675;28;20029;-75
2020/12/10 10:30:19;;;;;;;10.35;3.13;;;;;;;;;;5049530;28;20357;-74
2020/12/10 10:32:44;;;;;;;9.63;3.20;;;;;;;;;;5050723;28;20028;-76
2020/12/10 10:35:09;;;;;;;13.27;2.92;;;;;;;;;;5050506;28;20024;-75
2020/12/10 10:37:34;;;;;;;16.20;3.28;;;;;;;;;;5051071;28;20021;-75
2020/12/10 10:40:00;;;;;;;15.15;4.05;;;;;;;;;;5050649;28;20579;-75
2020/12/10 10:42:25;;;;;;;9.13;2.78;;;;;;;;;;5050645;28;20031;-75
2020/12/10 10:44:50;;;;;;;6.65;2.70;;;;;;;;;;5050513;28;20025;-74
2020/12/10 10:47:15;;;;;;;14.88;4.07;;;;;;;;;;5050532;28;20041;-75
2020/12/10 10:49:41;;;;;;;8.07;2.63;;;;;;;;;;5050917;28;20024;-75
2020/12/10 10:52:06;;;;;;;11.73;2.90;;;;;;;;;;5051185;28;20396;-75
2020/12/10 10:54:31;;;;;;;12.50;2.47;;;;;;;;;;5050308;28;20115;-75
2020/12/10 10:56:57;;;;;;;8.48;2.60;;;;;;;;;;5050006;28;20376;-74
2020/12/10 10:59:22;;;;;;;8.00;3.60;;;;;;;;;;5050424;28;20029;-75
2020/12/10 11:01:47;;;;;;;6.75;2.13;;;;;;;;;;5050548;28;20053;-75
2020/12/10 11:04:12;;;;;;;8.48;2.90;;;;;;;;;;5049976;28;20063;-75
2020/12/10 11:06:38;;;;;;;9.57;2.80;;;;;;;;;;5050704;28;20099;-74
2020/12/10 11:09:03;;;;;;;7.85;2.85;;;;;;;;;;5043295;28;20032;-75
2020/12/10 11:11:28;;;;;;;8.65;2.50;;;;;;;;;;5047450;28;20036;-75
2020/12/10 11:13:54;;;;;;;7.95;2.20;;;;;;;;;;5049802;28;20318;-75
2020/12/10 11:16:21;;;;;;;10.32;2.65;;;;;;;;;;5049750;28;20044;-74
2020/12/10 11:18:46;;;;;;;14.95;2.95;;;;;;;;;;5049453;28;20104;-75
2020/12/10 11:21:12;;;;;;;12.48;3.20;;;;;;;;;;5049973;28;20154;-74
2020/12/10 11:23:38;;;;;;;10.90;3.28;;;;;;;;;;5049468;28;20473;-74
2020/12/10 11:26:03;;;;;;;12.27;2.78;;;;;;;;;;5049499;28;20032;-76
2020/12/10 11:28:28;;;;;;;7.53;2.88;;;;;;;;;;5049608;28;20025;-75
2020/12/10 11:30:54;;;;;;;7.18;2.78;;;;;;;;;;5049985;28;20076;-76
2020/12/10 11:33:20;;;;;;;5.97;2.72;;;;;;;;;;5049409;28;20510;-75
2020/12/10 11:35:45;;;;;;;11.57;3.17;;;;;;;;;;5050442;28;20036;-75
2020/12/10 11:38:10;;;;;;;7.93;2.58;;;;;;;;;;5049712;28;20033;-75
2020/12/10 11:40:36;;;;;;;8.80;2.58;;;;;;;;;;5049829;28;20021;-75
2020/12/10 11:43:01;;;;;;;8.75;2.50;;;;;;;;;;5048763;28;20025;-75
2020/12/10 11:45:26;;;;;;;6.75;2.10;;;;;;;;;;5049881;28;20036;-75
2020/12/10 11:47:52;;;;;;;9.65;2.60;;;;;;;;;;5050083;28;20418;-74
2020/12/10 11:50:20;;;;;;;11.55;2.42;;;;;;;;;;5049011;28;20028;-75
2020/12/10 11:52:49;;;;;;;5.22;2.80;;;;;;;;;;5049260;28;20032;-75
2020/12/10 11:55:15;;;;;;;7.82;2.65;;;;;;;;;;5049678;28;20029;-75
2020/12/10 11:57:40;;;;;;;12.32;4.22;;;;;;;;;;5049095;28;20447;-75
2020/12/10 12:00:06;;;;;;;9.00;3.20;;;;;;;;;;5048042;28;20037;-75
2020/12/10 12:02:31;;;;;;;9.80;2.45;;;;;;;;;;5049308;28;20100;-75
2020/12/10 12:04:57;;;;;;;10.20;3.05;;;;;;;;;;5050217;28;20108;-75
2020/12/10 12:07:22;;;;;;;8.68;2.50;;;;;;;;;;5049068;28;20025;-75
2020/12/10 12:09:47;;;;;;;8.07;3.00;;;;;;;;;;5049541;28;20029;-74
2020/12/10 12:12:13;;;;;;;6.85;2.58;;;;;;;;;;5049343;28;20465;-74
2020/12/10 12:14:38;;;;;;;7.57;2.35;;;;;;;;;;5049502;28;20040;-74
2020/12/10 12:17:03;;;;;;;6.30;2.13;;;;;;;;;;5048633;28;20500;-75
2020/12/10 12:19:28;;;;;;;5.32;1.95;;;;;;;;;;5048738;28;20052;-75
2020/12/10 12:21:57;;;;;;;8.73;2.58;;;;;;;;;;5048396;28;20036;-74
2020/12/10 12:24:23;;;;;;;4.70;2.50;;;;;;;;;;5049381;28;20305;-75
2020/12/10 12:26:48;;;;;;;8.05;2.08;;;;;;;;;;5049246;28;20033;-75
2020/12/10 12:29:13;;;;;;;6.05;2.20;;;;;;;;;;5049099;28;20029;-75
2020/12/10 12:31:39;;;;;;;7.85;2.45;;;;;;;;;;5049115;28;20519;-74
2020/12/10 12:34:04;;;;;;;7.97;2.17;;;;;;;;;;5049721;28;20036;-74
2020/12/10 12:36:30;;;;;;;5.35;2.60;;;;;;;;;;5048882;28;20029;-76
2020/12/10 12:38:55;;;;;;;6.13;2.35;;;;;;;;;;5048360;28;20067;-74
2020/12/10 12:41:25;;;;;;;6.30;2.42;;;;;;;;;;5048307;28;20029;-74
2020/12/10 12:43:50;;;;;;;6.85;2.35;;;;;;;;;;5049341;28;20063;-74
2020/12/10 12:46:16;;;;;;;8.48;2.33;;;;;;;;;;5048992;28;20021;-75
2020/12/10 12:48:41;;;;;;;5.18;2.40;;;;;;;;;;5044751;28;20098;-77
2020/12/10 12:51:06;;;;;;;8.63;2.88;;;;;;;;;;5051711;28;20041;-74
2020/12/10 12:53:31;;;;;;;9.00;2.47;;;;;;;;;;5052457;28;20021;-74
2020/12/10 12:55:57;;;;;;;7.05;2.60;;;;;;;;;;5052771;28;20041;-74
2020/12/10 12:58:22;;;;;;;9.15;2.53;;;;;;;;;;5051942;28;20033;-74
2020/12/10 13:00:47;;;;;;;6.68;2.30;;;;;;;;;;5051670;28;20049;-74
2020/12/10 13:03:13;;;;;;;7.10;2.40;;;;;;;;;;5050502;28;20029;-79
2020/12/10 13:05:38;;;;;;;5.28;2.13;;;;;;;;;;5052946;28;20029;-74
2020/12/10 13:08:03;;;;;;;9.77;3.60;;;;;;;;;;5051769;28;20025;-74
2020/12/10 13:10:29;;;;;;;6.65;2.90;;;;;;;;;;5052476;28;20064;-75
2020/12/10 13:12:54;;;;;;;8.57;3.20;;;;;;;;;;5051437;28;20504;-74
2020/12/10 13:15:19;;;;;;;10.77;2.80;;;;;;;;;;5051759;28;20021;-74
2020/12/10 13:17:44;;;;;;;9.88;3.08;;;;;;;;;;5050964;28;20373;-75
2020/12/10 13:20:10;;;;;;;10.55;3.08;;;;;;;;;;5051611;28;20408;-74
2020/12/10 13:22:35;;;;;;;7.90;2.83;;;;;;;;;;5051419;28;20092;-74
2020/12/10 13:25:01;;;;;;;8.32;2.70;;;;;;;;;;5051661;28;20021;-74
2020/12/10 13:27:26;;;;;;;16.85;2.80;;;;;;;;;;5052447;28;20028;-74
2020/12/10 13:29:51;;;;;;;6.35;2.80;;;;;;;;;;5051698;28;20453;-74
2020/12/10 13:32:17;;;;;;;12.32;2.78;;;;;;;;;;5052670;28;20044;-74
2020/12/10 13:34:42;;;;;;;12.38;3.00;;;;;;;;;;5051832;28;20025;-75
2020/12/10 13:37:07;;;;;;;7.80;2.60;;;;;;;;;;5050970;28;20032;-74
2020/12/10 13:39:33;;;;;;;11.70;3.40;;;;;;;;;;5051268;28;20031;-75
2020/12/10 13:41:58;;;;;;;10.50;2.47;;;;;;;;;;5051666;28;20090;-74
2020/12/10 13:44:26;;;;;;;10.38;3.25;;;;;;;;;;5051695;28;20031;-75
2020/12/10 13:46:51;;;;;;;11.82;4.00;;;;;;;;;;5052423;28;20543;-74
2020/12/10 13:49:17;;;;;;;10.50;3.50;;;;;;;;;;5051986;28;20116;-75
2020/12/10 13:51:42;;;;;;;10.30;2.63;;;;;;;;;;5051159;28;20035;-74
2020/12/10 13:54:07;;;;;;;11.85;3.03;;;;;;;;;;5051730;28;20040;-74
2020/12/10 13:56:33;;;;;;;9.38;3.03;;;;;;;;;;5051625;28;20083;-75
2020/12/10 13:58:58;;;;;;;11.52;3.20;;;;;;;;;;5051525;28;20416;-74
2020/12/10 14:01:23;;;;;;;10.70;2.92;;;;;;;;;;5052182;28;20105;-74
2020/12/10 14:03:48;;;;;;;15.70;4.35;;;;;;;;;;5051597;28;20036;-74
2020/12/10 14:06:17;;;;;;;15.02;5.20;;;;;;;;;;5050959;28;20033;-74
2020/12/10 14:08:43;;;;;;;12.65;3.83;;;;;;;;;;5051029;28;20029;-74
2020/12/10 14:11:09;;;;;;;13.15;5.15;;;;;;;;;;5050451;28;20041;-74
2020/12/10 14:13:35;;;;;;;16.08;5.57;;;;;;;;;;5050480;28;20017;-75
2020/12/10 14:16:00;;;;;;;18.13;5.82;;;;;;;;;;5050670;28;20029;-79
2020/12/10 14:18:26;;;;;;;22.65;7.05;;;;;;;;;;5051334;28;20029;-75
2020/12/10 14:20:52;;;;;;;10.32;4.20;;;;;;;;;;5051102;28;20407;-74
2020/12/10 14:23:17;;;;;;;15.55;4.18;;;;;;;;;;5051392;28;20477;-74
2020/12/10 14:25:42;;;;;;;13.80;4.45;;;;;;;;;;5051519;28;20501;-74
2020/12/10 14:28:07;;;;;;;13.73;4.68;;;;;;;;;;5050858;28;20017;-74
2020/12/10 14:30:33;;;;;;;9.63;4.05;;;;;;;;;;5051638;28;20435;-77
2020/12/10 14:32:58;;;;;;;8.50;3.40;;;;;;;;;;5049580;28;20515;-74
2020/12/10 14:35:23;;;;;;;14.05;3.90;;;;;;;;;;5050907;28;20453;-74
2020/12/10 14:37:48;;;;;;;17.65;6.45;;;;;;;;;;5050207;28;20053;-74
2020/12/10 14:40:14;;;;;;;14.77;6.18;;;;;;;;;;5050366;28;20116;-75
2020/12/10 14:42:39;;;;;;;13.63;4.60;;;;;;;;;;5050358;28;20032;-74
2020/12/10 14:45:04;;;;;;;11.57;4.03;;;;;;;;;;5051040;28;20071;-74
2020/12/10 14:47:30;;;;;;;17.17;5.63;;;;;;;;;;5050743;28;20063;-74
2020/12/10 14:49:55;;;;;;;13.68;4.63;;;;;;;;;;5050666;28;20070;-74
2020/12/10 14:52:20;;;;;;;16.33;5.82;;;;;;;;;;5050261;28;20052;-74
2020/12/10 14:54:46;;;;;;;21.95;6.32;;;;;;;;;;5050921;28;20041;-74
2020/12/10 14:57:11;;;;;;;14.82;6.30;;;;;;;;;;5049598;28;20025;-76
2020/12/10 14:59:36;;;;;;;13.70;3.42;;;;;;;;;;5050417;28;20035;-74
2020/12/10 15:02:04;;;;;;;17.77;7.03;;;;;;;;;;5048838;28;20060;-74
2020/12/10 15:04:29;;;;;;;10.85;3.28;;;;;;;;;;5048995;28;20021;-75
2020/12/10 15:06:55;;;;;;;9.40;3.10;;;;;;;;;;5049750;28;20029;-74
2020/12/10 15:09:20;;;;;;;9.15;2.88;;;;;;;;;;5049033;28;20388;-77
2020/12/10 15:11:45;;;;;;;7.13;2.70;;;;;;;;;;5049515;28;20033;-79
2020/12/10 15:14:10;;;;;;;11.43;2.90;;;;;;;;;;5049984;28;20043;-74
2020/12/10 15:16:36;;;;;;;9.30;2.88;;;;;;;;;;5049090;28;20045;-74
2020/12/10 15:19:01;;;;;;;10.10;3.72;;;;;;;;;;5049413;28;20017;-74
2020/12/10 15:21:27;;;;;;;12.50;3.00;;;;;;;;;;5049639;28;20036;-74
2020/12/10 15:23:52;;;;;;;12.52;3.63;;;;;;;;;;5049403;28;20032;-74
2020/12/10 15:26:18;;;;;;;14.52;4.18;;;;;;;;;;5043366;28;20025;-80
2020/12/10 15:28:43;;;;;;;14.68;4.25;;;;;;;;;;5048567;28;20033;-75
2020/12/10 15:31:09;;;;;;;10.25;3.55;;;;;;;;;;5048398;28;20399;-74
2020/12/10 15:33:34;;;;;;;11.05;4.00;;;;;;;;;;5049657;28;20449;-73
2020/12/10 15:36:00;;;;;;;11.63;3.90;;;;;;;;;;5049448;28;20060;-75
2020/12/10 15:38:25;;;;;;;6.18;2.65;;;;;;;;;;5048262;28;20103;-74
2020/12/10 15:40:51;;;;;;;9.82;3.42;;;;;;;;;;5050161;28;20021;-75
2020/12/10 15:43:19;;;;;;;8.35;2.72;;;;;;;;;;5049936;28;20421;-75
2020/12/10 15:45:44;;;;;;;10.90;2.33;;;;;;;;;;5049822;28;20036;-74
2020/12/10 15:48:10;;;;;;;14.63;3.75;;;;;;;;;;5049137;28;20017;-74
2020/12/10 15:50:36;;;;;;;11.85;3.42;;;;;;;;;;5048573;28;20615;-77
2020/12/10 15:53:02;;;;;;;10.50;3.25;;;;;;;;;;5048356;28;20484;-74
2020/12/10 15:55:27;;;;;;;9.88;3.05;;;;;;;;;;5048985;28;20032;-74
2020/12/10 15:57:54;;;;;;;13.23;3.50;;;;;;;;;;5048893;28;20033;-74
2020/12/10 16:00:20;;;;;;;13.90;3.60;;;;;;;;;;5048460;28;20037;-74
2020/12/10 16:02:45;;;;;;;12.38;3.17;;;;;;;;;;5048202;28;20037;-73
2020/12/10 16:05:10;;;;;;;18.23;11.02;;;;;;;;;;5049479;28;20393;-74
2020/12/10 16:07:36;;;;;;;26.50;13.07;;;;;;;;;;5049674;28;20021;-76
2020/12/10 16:10:01;;;;;;;11.05;4.20;;;;;;;;;;5049658;28;20021;-74
2020/12/10 16:12:26;;;;;;;11.80;3.42;;;;;;;;;;5048151;28;20033;-74
2020/12/10 16:14:52;;;;;;;9.30;4.00;;;;;;;;;;5049069;28;20009;-74
2020/12/10 16:17:17;;;;;;;10.32;3.83;;;;;;;;;;5049443;28;20029;-74
2020/12/10 16:19:42;;;;;;;15.85;5.80;;;;;;;;;;5049188;28;20456;-75
2020/12/10 16:22:07;;;;;;;14.88;8.00;;;;;;;;;;5049498;28;20009;-74
2020/12/10 16:24:33;;;;;;;12.85;5.35;;;;;;;;;;5053445;28;20094;-75
2020/12/10 16:26:58;;;;;;;18.23;8.98;;;;;;;;;;5053793;28;20056;-76
2020/12/10 16:29:23;;;;;;;13.07;5.47;;;;;;;;;;5053779;28;20028;-74
2020/12/10 16:31:49;;;;;;;11.77;4.00;;;;;;;;;;5052953;28;20040;-74
2020/12/10 16:34:15;;;;;;;9.57;3.50;;;;;;;;;;5053274;28;20044;-74
2020/12/10 16:36:41;;;;;;;11.90;4.85;;;;;;;;;;5052775;28;20013;-74
2020/12/10 16:39:06;;;;;;;13.30;4.72;;;;;;;;;;5053363;28;20025;-77
2020/12/10 16:41:31;;;;;;;10.82;4.70;;;;;;;;;;5053331;28;20056;-75
2020/12/10 16:43:57;;;;;;;14.63;5.65;;;;;;;;;;5053179;28;20055;-75
2020/12/10 16:46:22;;;;;;;18.58;7.68;;;;;;;;;;5053199;28;20392;-74
2020/12/10 16:48:47;;;;;;;13.43;5.70;;;;;;;;;;5053219;28;20029;-74
2020/12/10 16:51:12;;;;;;;15.68;5.97;;;;;;;;;;5052723;28;20159;-76
2020/12/10 16:53:38;;;;;;;14.57;7.00;;;;;;;;;;5052920;28;20064;-75
2020/12/10 16:56:03;;;;;;;34.75;18.15;;;;;;;;;;5052402;28;20025;-75
2020/12/10 16:58:30;;;;;;;36.40;17.35;;;;;;;;;;5052461;28;20445;-74
2020/12/10 17:00:56;;;;;;;50.10;22.10;;;;;;;;;;5052121;28;20045;-74
2020/12/10 17:03:21;;;;;;;45.20;17.17;;;;;;;;;;5052167;28;20033;-74
2020/12/10 17:05:46;;;;;;;19.20;8.90;;;;;;;;;;5052995;28;20017;-74
2020/12/10 17:08:11;;;;;;;14.10;7.15;;;;;;;;;;5053060;28;20067;-74
2020/12/10 17:10:38;;;;;;;21.83;10.90;;;;;;;;;;5051522;28;20395;-75
2020/12/10 17:13:03;;;;;;;16.52;8.48;;;;;;;;;;5051211;28;20392;-75
2020/12/10 17:15:28;;;;;;;20.23;10.55;;;;;;;;;;5052551;28;20139;-75
2020/12/10 17:17:53;;;;;;;15.52;8.13;;;;;;;;;;5052565;28;20036;-75
2020/12/10 17:20:19;;;;;;;11.18;7.50;;;;;;;;;;5050502;28;20029;-75
2020/12/10 17:22:44;;;;;;;17.08;7.28;;;;;;;;;;5048869;28;20021;-76
2020/12/10 17:25:09;;;;;;;17.90;6.97;;;;;;;;;;5048663;28;20123;-75
2020/12/10 17:27:35;;;;;;;11.73;6.97;;;;;;;;;;5045817;28;20433;-76
2020/12/10 17:30:00;;;;;;;19.45;10.57;;;;;;;;;;5049546;28;20036;-77
2020/12/10 17:32:25;;;;;;;19.23;10.25;;;;;;;;;;5045930;28;20043;-76
2020/12/10 17:34:51;;;;;;;38.85;19.55;;;;;;;;;;5046019;28;20028;-76
2020/12/10 17:37:16;;;;;;;32.53;15.27;;;;;;;;;;5047301;28;20037;-75
2020/12/10 17:39:41;;;;;;;14.25;8.07;;;;;;;;;;5046461;28;20472;-75
2020/12/10 17:42:06;;;;;;;13.00;7.30;;;;;;;;;;5045732;28;20392;-76
2020/12/10 17:44:32;;;;;;;14.70;10.10;;;;;;;;;;5046876;28;20037;-75
2020/12/10 17:46:57;;;;;;;17.65;9.20;;;;;;;;;;5046445;28;20041;-76
2020/12/10 17:49:23;;;;;;;21.30;9.57;;;;;;;;;;5046484;28;20158;-75
2020/12/10 17:51:49;;;;;;;38.15;16.05;;;;;;;;;;5047275;28;20063;-76
2020/12/10 17:54:14;;;;;;;48.10;19.52;;;;;;;;;;5046215;28;20469;-75
2020/12/10 17:56:39;;;;;;;27.70;14.85;;;;;;;;;;5045704;28;20025;-75
2020/12/10 17:59:05;;;;;;;26.10;11.30;;;;;;;;;;5046045;28;20520;-74
2020/12/10 18:01:32;;;;;;;25.33;13.25;;;;;;;;;;5046941;28;20049;-74
2020/12/10 18:03:58;;;;;;;28.10;16.65;;;;;;;;;;5044359;28;20350;-76
2020/12/10 18:06:23;;;;;;;21.45;11.30;;;;;;;;;;5044433;28;20040;-77
2020/12/10 18:08:48;;;;;;;27.25;14.38;;;;;;;;;;5046096;28;20154;-75
2020/12/10 18:11:18;;;;;;;31.00;14.93;;;;;;;;;;5045966;28;20469;-75
2020/12/10 18:13:43;;;;;;;40.65;15.32;;;;;;;;;;5046344;28;20029;-75
2020/12/10 18:16:09;;;;;;;21.38;11.05;;;;;;;;;;5045952;28;20043;-75
2020/12/10 18:18:34;;;;;;;30.05;16.02;;;;;;;;;;5046482;28;20053;-75
2020/12/10 18:20:59;;;;;;;25.35;11.05;;;;;;;;;;5046298;28;20053;-76
2020/12/10 18:23:24;;;;;;;31.10;16.83;;;;;;;;;;5045863;28;20050;-76
2020/12/10 18:25:50;;;;;;;20.92;14.07;;;;;;;;;;5045481;28;20032;-75
2020/12/10 18:28:15;;;;;;;19.38;10.52;;;;;;;;;;5045660;28;20037;-75
2020/12/10 18:30:40;;;;;;;25.25;15.77;;;;;;;;;;5046161;28;20029;-75
2020/12/10 18:33:06;;;;;;;26.45;16.25;;;;;;;;;;5045422;28;20135;-75
2020/12/10 18:35:31;;;;;;;32.65;16.38;;;;;;;;;;5046118;28;20480;-75
2020/12/10 18:37:57;;;;;;;40.10;16.33;;;;;;;;;;5046300;28;20071;-77
2020/12/10 18:40:22;;;;;;;22.63;12.27;;;;;;;;;;5044573;28;20025;-75
2020/12/10 18:42:47;;;;;;;19.17;10.75;;;;;;;;;;5045412;28;20461;-76
2020/12/10 18:45:12;;;;;;;21.40;11.35;;;;;;;;;;5041906;28;20543;-76
2020/12/10 18:47:38;;;;;;;18.77;10.95;;;;;;;;;;5044023;28;20052;-76
2020/12/10 18:50:11;;;;;;;16.65;11.30;;;;;;;;;;5045274;28;20445;-76
2020/12/10 18:52:37;;;;;;;19.35;11.55;;;;;;;;;;5046164;28;20041;-76
2020/12/10 18:55:02;;;;;;;13.82;8.98;;;;;;;;;;5044096;28;20032;-75
2020/12/10 18:57:28;;;;;;;24.52;12.93;;;;;;;;;;5043080;28;20032;-75
2020/12/10 18:59:53;;;;;;;24.42;13.25;;;;;;;;;;5045689;28;20788;-76
2020/12/10 19:02:26;;;;;;;22.85;12.98;;;;;;;;;;5045011;28;20045;-76
2020/12/10 19:04:52;;;;;;;25.25;13.20;;;;;;;;;;5047329;28;20032;-75
2020/12/10 19:07:17;;;;;;;15.25;10.40;;;;;;;;;;5049955;28;20354;-76
2020/12/10 19:09:43;;;;;;;19.55;10.95;;;;;;;;;;5051309;28;20025;-75
2020/12/10 19:12:08;;;;;;;20.00;13.32;;;;;;;;;;5052464;28;20074;-74
2020/12/10 19:14:33;;;;;;;17.15;12.63;;;;;;;;;;5044622;28;20117;-75
2020/12/10 19:16:59;;;;;;;15.75;11.50;;;;;;;;;;5047781;28;20131;-75
2020/12/10 19:19:24;;;;;;;19.17;12.30;;;;;;;;;;5049037;28;20085;-77
2020/12/10 19:21:50;;;;;;;19.40;12.90;;;;;;;;;;5049153;28;20111;-75
2020/12/10 19:24:15;;;;;;;19.17;12.98;;;;;;;;;;5049136;28;20503;-76
2020/12/10 19:26:40;;;;;;;20.38;13.40;;;;;;;;;;5048590;28;20061;-76
2020/12/10 19:29:06;;;;;;;25.27;14.32;;;;;;;;;;5048948;28;20075;-75
2020/12/10 19:31:31;;;;;;;23.65;16.25;;;;;;;;;;5048719;28;20094;-75
2020/12/10 19:33:56;;;;;;;26.83;16.27;;;;;;;;;;5048833;28;20601;-75
2020/12/10 19:36:21;;;;;;;24.95;15.25;;;;;;;;;;5047585;28;20056;-74
2020/12/10 19:38:47;;;;;;;27.45;15.85;;;;;;;;;;5045692;28;20090;-75
2020/12/10 19:41:12;;;;;;;30.02;15.52;;;;;;;;;;5049426;28;20071;-75
2020/12/10 19:43:38;;;;;;;27.58;14.82;;;;;;;;;;5049025;28;20505;-76
2020/12/10 19:46:03;;;;;;;26.45;16.63;;;;;;;;;;5049060;28;20429;-75
2020/12/10 19:48:29;;;;;;;35.63;17.08;;;;;;;;;;5048851;28;20036;-75
2020/12/10 19:50:54;;;;;;;30.60;16.45;;;;;;;;;;5049396;28;20037;-75
2020/12/10 19:53:20;;;;;;;33.92;18.42;;;;;;;;;;5048408;28;20123;-75
2020/12/10 19:55:46;;;;;;;29.45;16.95;;;;;;;;;;5048867;28;20090;-75
2020/12/10 19:58:12;;;;;;;30.08;17.00;;;;;;;;;;5048874;28;20036;-75
2020/12/10 20:00:38;;;;;;;42.15;18.55;;;;;;;;;;5048654;28;20464;-75
2020/12/10 20:03:03;;;;;;;42.80;19.63;;;;;;;;;;5048011;28;20480;-74
2020/12/10 20:05:28;;;;;;;31.25;17.63;;;;;;;;;;5048210;28;20037;-75
2020/12/10 20:07:55;;;;;;;31.13;18.10;;;;;;;;;;5038887;28;20017;-76
2020/12/10 20:10:20;;;;;;;36.80;19.23;;;;;;;;;;5046671;28;20056;-75
2020/12/10 20:12:46;;;;;;;39.92;20.58;;;;;;;;;;5050253;28;20620;-74
2020/12/10 20:15:11;;;;;;;33.97;18.55;;;;;;;;;;5051714;28;20032;-75
2020/12/10 20:17:36;;;;;;;48.95;25.23;;;;;;;;;;5051374;28;20171;-74
2020/12/10 20:20:04;;;;;;;40.53;22.92;;;;;;;;;;5050597;28;20037;-75
2020/12/10 20:22:29;;;;;;;37.17;21.90;;;;;;;;;;5051699;28;20052;-74
2020/12/10 20:24:56;;;;;;;36.30;19.60;;;;;;;;;;5044884;28;20102;-75
2020/12/10 20:27:21;;;;;;;37.50;19.83;;;;;;;;;;5049932;28;20039;-75
2020/12/10 20:29:48;;;;;;;41.47;19.58;;;;;;;;;;5048052;28;20461;-76
2020/12/10 20:32:13;;;;;;;43.75;20.83;;;;;;;;;;5048293;28;20154;-74
2020/12/10 20:34:39;;;;;;;40.03;19.02;;;;;;;;;;5049459;28;20107;-75
2020/12/10 20:37:04;;;;;;;29.60;17.83;;;;;;;;;;5047651;28;20021;-77
2020/12/10 20:39:30;;;;;;;32.00;17.55;;;;;;;;;;5048100;28;20051;-76
2020/12/10 20:41:56;;;;;;;40.85;19.95;;;;;;;;;;5041945;28;20041;-75
2020/12/10 20:44:26;;;;;;;34.40;17.13;;;;;;;;;;5045229;28;20425;-75
2020/12/10 20:46:51;;;;;;;35.50;18.58;;;;;;;;;;5044793;28;20035;-76
2020/12/10 20:49:17;;;;;;;39.10;18.48;;;;;;;;;;5046896;28;20029;-78
2020/12/10 20:51:42;;;;;;;33.30;18.52;;;;;;;;;;5056757;28;20835;-75
2020/12/10 20:54:08;;;;;;;37.50;17.30;;;;;;;;;;5059613;28;20120;-75
2020/12/10 20:56:33;;;;;;;36.80;18.52;;;;;;;;;;5046550;28;20056;-75
2020/12/10 20:58:59;;;;;;;36.85;19.08;;;;;;;;;;5045834;28;20136;-75
2020/12/10 21:01:24;;;;;;;40.75;18.17;;;;;;;;;;5044050;28;20048;-75
2020/12/10 21:03:50;;;;;;;39.60;17.65;;;;;;;;;;5045059;28;20061;-76
2020/12/10 21:06:15;;;;;;;34.85;17.23;;;;;;;;;;5045305;28;20029;-75
2020/12/10 21:08:41;;;;;;;34.63;17.25;;;;;;;;;;5046103;28;20141;-76
2020/12/10 21:11:06;;;;;;;43.67;21.30;;;;;;;;;;5054031;28;20056;-75
2020/12/10 21:13:31;;;;;;;44.75;21.73;;;;;;;;;;5047509;28;20098;-75
2020/12/10 21:15:57;;;;;;;37.33;19.80;;;;;;;;;;5048714;28;20029;-75
2020/12/10 21:18:22;;;;;;;32.83;16.25;;;;;;;;;;5048896;28;20107;-75
2020/12/10 21:20:47;;;;;;;33.17;15.82;;;;;;;;;;5047397;28;20021;-76
2020/12/10 21:23:13;;;;;;;26.08;11.20;;;;;;;;;;5047912;28;20464;-75
2020/12/10 21:25:41;;;;;;;26.13;11.88;;;;;;;;;;5048380;28;20066;-75
2020/12/10 21:28:06;;;;;;;22.30;11.43;;;;;;;;;;5047080;28;20069;-75
2020/12/10 21:30:31;;;;;;;24.08;12.55;;;;;;;;;;5048149;28;20057;-76
2020/12/10 21:32:57;;;;;;;22.27;11.65;;;;;;;;;;5047989;28;20506;-74
2020/12/10 21:35:22;;;;;;;19.20;10.23;;;;;;;;;;5047565;28;20021;-75
2020/12/10 21:37:47;;;;;;;20.98;10.10;;;;;;;;;;5048531;28;20060;-75
2020/12/10 21:40:12;;;;;;;24.25;10.93;;;;;;;;;;5047353;28;20035;-75
2020/12/10 21:42:38;;;;;;;24.45;12.05;;;;;;;;;;5048135;28;20128;-76
2020/12/10 21:45:03;;;;;;;25.75;11.20;;;;;;;;;;5047535;28;20033;-78
2020/12/10 21:47:29;;;;;;;34.80;11.75;;;;;;;;;;5048808;28;20091;-74
2020/12/10 21:49:54;;;;;;;29.98;11.25;;;;;;;;;;5047217;28;20668;-75
2020/12/10 21:52:19;;;;;;;31.92;13.48;;;;;;;;;;5045778;28;20548;-74
2020/12/10 21:54:44;;;;;;;23.08;10.43;;;;;;;;;;5047934;28;20666;-75
2020/12/10 21:57:10;;;;;;;35.35;13.25;;;;;;;;;;5048277;28;20025;-75
2020/12/10 21:59:35;;;;;;;23.17;11.68;;;;;;;;;;5046802;28;20658;-75
2020/12/10 22:02:00;;;;;;;29.33;12.23;;;;;;;;;;5047283;28;20080;-75
2020/12/10 22:04:25;;;;;;;32.53;12.93;;;;;;;;;;5047638;28;20025;-75
2020/12/10 22:06:51;;;;;;;37.05;12.88;;;;;;;;;;5043092;28;20111;-78
2020/12/10 22:09:16;;;;;;;25.95;10.57;;;;;;;;;;5044755;28;20037;-76
2020/12/10 22:11:44;;;;;;;33.17;11.35;;;;;;;;;;5043657;28;20072;-75
2020/12/10 22:14:13;;;;;;;26.95;11.82;;;;;;;;;;5043805;28;20477;-75
2020/12/10 22:16:38;;;;;;;30.23;10.27;;;;;;;;;;5046743;28;20060;-79
2020/12/10 22:19:03;;;;;;;28.23;9.73;;;;;;;;;;5045717;28;20454;-76
2020/12/10 22:21:29;;;;;;;28.70;10.85;;;;;;;;;;5046232;28;20083;-76
2020/12/10 22:23:54;;;;;;;28.13;11.32;;;;;;;;;;5041393;28;20024;-75
2020/12/10 22:26:20;;;;;;;25.42;9.93;;;;;;;;;;5049117;28;20036;-75